Time;durP1;ratioP1;P1;durP2;ratioP2;P2;SDS_P1;SDS_P2;PMS_P1;PMS_P2;Temp;Humidity;BMP_temperature;BMP_pressure;BME280_temperature;BME280_humidity;BME280_pressure;Samples;Min_cycle;Max_cycle;Signal;HPM_P1;HPM_P2
2023/05/01 00:00:38;;;;;;;6.13;5.15;;;;;;;9.47;70.57;94763.91;5054910;28;20043;-74
2023/05/01 00:03:03;;;;;;;7.78;5.95;;;;;;;9.47;70.26;94759.56;5056344;28;20085;-74
2023/05/01 00:05:29;;;;;;;8.27;5.88;;;;;;;9.54;70.92;94767.69;5073419;28;20028;-74
2023/05/01 00:07:54;;;;;;;6.30;5.25;;;;;;;9.58;70.11;94775.09;5022487;28;20039;-75
2023/05/01 00:10:20;;;;;;;5.78;4.78;;;;;;;9.52;69.70;94775.56;5047450;28;20043;-74
2023/05/01 00:12:45;;;;;;;7.93;5.03;;;;;;;9.48;69.72;94765.59;5058544;28;20106;-74
2023/05/01 00:15:11;;;;;;;7.05;4.88;;;;;;;9.50;68.97;94761.94;5075330;28;20024;-74
2023/05/01 00:17:36;;;;;;;6.30;5.00;;;;;;;9.61;68.94;94776.59;5055723;28;20032;-74
2023/05/01 00:20:03;;;;;;;6.35;5.05;;;;;;;9.51;69.09;94770.53;5091782;28;20318;-74
2023/05/01 00:22:29;;;;;;;5.20;4.70;;;;;;;9.30;69.82;94762.66;5074329;28;20028;-74
2023/05/01 00:24:54;;;;;;;5.93;4.78;;;;;;;9.38;69.54;94781.03;5051049;28;20418;-75
2023/05/01 00:27:20;;;;;;;5.68;4.90;;;;;;;9.29;70.04;94777.38;5073104;28;20025;-74
2023/05/01 00:29:45;;;;;;;5.93;5.30;;;;;;;9.14;70.50;94765.63;5055206;28;20028;-74
2023/05/01 00:32:11;;;;;;;5.78;5.07;;;;;;;9.18;70.94;94780.00;5065603;28;20040;-74
2023/05/01 00:34:36;;;;;;;7.13;5.22;;;;;;;9.11;70.75;94778.81;5073083;28;20054;-74
2023/05/01 00:37:02;;;;;;;7.70;5.38;;;;;;;9.05;71.22;94774.94;5069665;28;20020;-74
2023/05/01 00:39:27;;;;;;;5.85;4.90;;;;;;;9.21;70.29;94779.75;5091782;28;20081;-74
2023/05/01 00:41:54;;;;;;;5.93;4.97;;;;;;;9.21;70.03;94771.16;5074951;28;20028;-74
2023/05/01 00:44:20;;;;;;;5.90;4.60;;;;;;;9.27;70.34;94781.84;5083987;28;20033;-74
2023/05/01 00:46:45;;;;;;;6.50;4.88;;;;;;;9.08;70.81;94779.06;5056800;28;20024;-74
2023/05/01 00:49:10;;;;;;;6.03;5.07;;;;;;;9.02;71.25;94784.72;5074810;28;20032;-74
2023/05/01 00:51:36;;;;;;;5.63;4.72;;;;;;;9.06;70.90;94770.59;5066037;28;20479;-74
2023/05/01 00:54:02;;;;;;;6.13;4.80;;;;;;;9.14;70.55;94792.38;5054359;28;20024;-74
2023/05/01 00:56:28;;;;;;;5.57;4.55;;;;;;;9.19;70.29;94792.00;5021278;28;20064;-74
2023/05/01 00:58:54;;;;;;;7.95;5.07;;;;;;;8.99;70.49;94777.19;5068362;28;20032;-74
2023/05/01 01:01:20;;;;;;;5.85;4.90;;;;;;;9.12;70.74;94801.22;5080772;28;20036;-74
2023/05/01 01:03:46;;;;;;;5.82;4.82;;;;;;;9.03;70.34;94784.59;5041395;28;20516;-74
2023/05/01 01:06:15;;;;;;;6.90;4.85;;;;;;;9.00;70.39;94791.78;5090453;28;20020;-75
2023/05/01 01:09:07;;;;;;;6.18;4.90;;;;;;;9.10;70.19;94808.28;5057584;28;20032;-74
2023/05/01 01:11:54;;;;;;;6.68;5.30;;;;;;;9.00;70.75;94812.50;5084190;28;20482;-74
2023/05/01 01:14:35;;;;;;;6.45;4.82;;;;;;;8.99;70.59;94790.94;5074014;28;20085;-74
2023/05/01 01:17:10;;;;;;;6.57;4.60;;;;;;;9.04;70.68;94803.56;5054737;28;20031;-74
2023/05/01 01:19:54;;;;;;;5.43;4.55;;;;;;;9.12;70.23;94806.41;5058117;28;20046;-74
2023/05/01 01:22:22;;;;;;;5.97;4.68;;;;;;;9.08;70.25;94804.97;5065648;28;20060;-75
2023/05/01 01:24:47;;;;;;;5.95;4.95;;;;;;;9.02;70.64;94808.84;5083999;28;20028;-74
2023/05/01 01:27:31;;;;;;;5.50;4.90;;;;;;;8.90;71.10;94812.41;5077284;28;20039;-74
2023/05/01 01:30:07;;;;;;;5.80;4.97;;;;;;;8.89;70.64;94805.56;5071769;28;20048;-74
2023/05/01 01:33:08;;;;;;;6.65;5.03;;;;;;;8.95;70.83;94811.09;5072965;28;20024;-74
2023/05/01 01:35:33;;;;;;;5.68;4.78;;;;;;;8.87;70.65;94795.31;5039513;28;20055;-74
2023/05/01 01:38:01;;;;;;;5.20;4.57;;;;;;;9.09;70.45;94812.63;5073882;28;20028;-74
2023/05/01 01:41:10;;;;;;;6.65;5.03;;;;;;;8.92;70.56;94816.50;5071522;28;20048;-74
2023/05/01 01:43:45;;;;;;;6.70;5.22;;;;;;;9.03;70.64;94807.09;5044710;28;20051;-74
2023/05/01 01:46:10;;;;;;;6.28;5.13;;;;;;;8.95;70.30;94800.75;5059333;28;20028;-74
2023/05/01 01:48:39;;;;;;;6.93;4.80;;;;;;;8.96;70.79;94819.69;5043062;28;20039;-75
2023/05/01 01:51:07;;;;;;;6.32;4.97;;;;;;;9.04;70.73;94814.75;5037453;28;20033;-74
2023/05/01 01:53:32;;;;;;;7.47;5.07;;;;;;;8.90;71.00;94808.03;5037213;28;20040;-74
2023/05/01 01:55:58;;;;;;;7.07;5.35;;;;;;;8.95;70.70;94805.91;5037235;28;20464;-74
2023/05/01 01:58:25;;;;;;;6.13;5.05;;;;;;;8.80;70.65;94795.88;5020370;28;20032;-74
2023/05/01 02:00:50;;;;;;;6.30;5.50;;;;;;;8.78;71.34;94808.16;5036963;28;20487;-74
2023/05/01 02:03:16;;;;;;;6.68;5.60;;;;;;;8.75;70.78;94803.19;5043856;28;20054;-74
2023/05/01 02:05:41;;;;;;;6.53;5.10;;;;;;;8.74;71.35;94799.78;5056535;28;20486;-74
2023/05/01 02:08:06;;;;;;;5.88;4.75;;;;;;;8.63;71.23;94798.00;5056874;28;20036;-73
2023/05/01 02:10:32;;;;;;;5.72;5.03;;;;;;;8.71;71.19;94805.19;5036424;28;20033;-75
2023/05/01 02:12:57;;;;;;;6.63;5.43;;;;;;;8.59;70.97;94793.16;5036812;28;20052;-74
2023/05/01 02:15:23;;;;;;;9.13;5.35;;;;;;;8.73;70.98;94805.91;5054121;28;20036;-74
2023/05/01 02:17:48;;;;;;;8.05;4.72;;;;;;;8.66;70.95;94794.34;5056291;28;20305;-74
2023/05/01 02:20:14;;;;;;;7.78;5.32;;;;;;;8.72;71.01;94806.84;5020541;28;20077;-74
2023/05/01 02:22:40;;;;;;;7.95;5.30;;;;;;;8.63;71.28;94802.34;5036436;28;20033;-74
2023/05/01 02:25:10;;;;;;;5.88;4.90;;;;;;;8.50;71.60;94785.16;5030544;28;20421;-74
2023/05/01 02:27:37;;;;;;;7.00;5.40;;;;;;;8.66;71.12;94786.56;5057147;28;20420;-74
2023/05/01 02:30:04;;;;;;;5.55;4.80;;;;;;;8.63;70.82;94784.22;5054532;28;20050;-74
2023/05/01 02:32:30;;;;;;;6.85;5.25;;;;;;;8.57;71.43;94797.63;5046246;28;20036;-74
2023/05/01 02:34:56;;;;;;;5.18;4.53;;;;;;;8.61;71.68;94799.88;5056490;28;20081;-75
2023/05/01 02:37:21;;;;;;;6.43;5.03;;;;;;;8.50;71.65;94799.88;5056017;28;20033;-74
2023/05/01 02:39:47;;;;;;;5.78;5.00;;;;;;;8.53;71.42;94794.47;5036638;28;20523;-74
2023/05/01 02:42:13;;;;;;;5.93;5.00;;;;;;;8.39;71.80;94792.09;5036290;28;20040;-74
2023/05/01 02:44:45;;;;;;;5.80;5.10;;;;;;;8.44;71.42;94784.78;5036536;28;20041;-74
2023/05/01 02:47:11;;;;;;;6.15;5.13;;;;;;;8.39;71.64;94787.72;5038118;28;20039;-74
2023/05/01 02:49:37;;;;;;;5.35;4.55;;;;;;;8.39;71.83;94790.31;5060240;28;20134;-74
2023/05/01 02:52:03;;;;;;;5.93;5.05;;;;;;;8.49;71.72;94798.19;5060231;28;20036;-74
2023/05/01 02:54:29;;;;;;;7.80;5.07;;;;;;;8.39;71.66;94790.31;5040113;28;20474;-74
2023/05/01 02:56:57;;;;;;;6.20;4.90;;;;;;;8.52;71.66;94802.31;5048560;28;20081;-74
2023/05/01 02:59:22;;;;;;;5.70;4.95;;;;;;;8.50;71.43;94805.88;5070014;28;20040;-74
2023/05/01 03:01:48;;;;;;;6.40;4.97;;;;;;;8.47;71.39;94811.28;5065106;28;20148;-74
2023/05/01 03:04:13;;;;;;;6.70;5.05;;;;;;;8.31;71.31;94800.38;5074663;28;20517;-74
2023/05/01 03:06:39;;;;;;;6.32;5.32;;;;;;;8.25;71.18;94800.84;5073427;28;20035;-74
2023/05/01 03:09:04;;;;;;;6.18;4.90;;;;;;;8.34;70.87;94810.50;5075852;28;20036;-74
2023/05/01 03:11:30;;;;;;;7.72;5.05;;;;;;;8.27;70.69;94809.28;5059504;28;20027;-74
2023/05/01 03:13:55;;;;;;;6.78;5.07;;;;;;;8.11;71.64;94813.94;5076809;28;20028;-74
2023/05/01 03:16:21;;;;;;;8.07;6.55;;;;;;;8.18;72.42;94826.31;5094116;28;20485;-74
2023/05/01 03:18:47;;;;;;;10.27;7.00;;;;;;;8.14;72.44;94824.09;5076017;28;20040;-75
2023/05/01 03:21:12;;;;;;;13.30;7.65;;;;;;;8.11;72.43;94837.22;5076443;28;20409;-75
2023/05/01 03:23:38;;;;;;;18.05;11.35;;;;;;;8.07;72.54;94818.50;5076448;28;20039;-75
2023/05/01 03:26:03;;;;;;;11.70;8.20;;;;;;;8.24;72.10;94836.22;5059623;28;20123;-75
2023/05/01 03:28:29;;;;;;;8.70;5.97;;;;;;;8.17;71.94;94834.22;5055934;28;20060;-75
2023/05/01 03:30:54;;;;;;;9.63;6.43;;;;;;;7.84;72.85;94833.13;5071439;28;20395;-72
2023/05/01 03:33:20;;;;;;;9.52;6.25;;;;;;;7.77;72.17;94825.00;5076233;28;20036;-75
2023/05/01 03:35:46;;;;;;;13.88;9.73;;;;;;;7.79;72.61;94838.59;5050813;28;20023;-76
2023/05/01 03:38:11;;;;;;;11.57;9.00;;;;;;;7.67;72.90;94820.56;5074207;28;20035;-75
2023/05/01 03:40:37;;;;;;;10.70;7.35;;;;;;;7.72;72.05;94826.25;5041165;28;20016;-76
2023/05/01 03:43:02;;;;;;;12.43;7.82;;;;;;;7.55;72.54;94830.84;5041953;28;20028;-76
2023/05/01 03:45:28;;;;;;;10.18;7.53;;;;;;;7.53;72.83;94845.63;5057938;28;20047;-76
2023/05/01 03:47:53;;;;;;;10.48;7.35;;;;;;;7.52;72.19;94844.00;5093673;28;20024;-75
2023/05/01 03:50:19;;;;;;;8.13;6.53;;;;;;;7.46;72.68;94852.16;5063088;28;20085;-76
2023/05/01 03:52:44;;;;;;;9.00;7.05;;;;;;;7.16;73.40;94858.53;5082074;28;20040;-75
2023/05/01 03:55:10;;;;;;;8.23;7.20;;;;;;;6.81;75.25;94865.25;5072318;28;20388;-76
2023/05/01 03:57:36;;;;;;;8.48;6.15;;;;;;;6.90;75.41;94872.38;5063846;28;20036;-76
2023/05/01 04:00:02;;;;;;;8.35;6.78;;;;;;;6.98;75.40;94867.53;5064416;28;20392;-75
2023/05/01 04:02:27;;;;;;;7.30;5.82;;;;;;;6.98;75.54;94849.44;5069206;28;20123;-76
2023/05/01 04:04:53;;;;;;;6.70;5.90;;;;;;;7.30;74.97;94849.84;5087035;28;20036;-75
2023/05/01 04:07:18;;;;;;;7.65;5.97;;;;;;;7.56;73.91;94848.00;5062941;28;20028;-75
2023/05/01 04:09:44;;;;;;;7.43;6.00;;;;;;;7.97;73.37;94854.59;5054722;28;20028;-76
2023/05/01 04:12:09;;;;;;;8.18;5.70;;;;;;;8.34;71.98;94861.44;5063694;28;20051;-76
2023/05/01 04:14:34;;;;;;;6.53;5.53;;;;;;;8.84;70.21;94852.53;5024091;28;20403;-74
2023/05/01 04:17:00;;;;;;;7.72;6.30;;;;;;;9.49;67.63;94842.41;5086057;28;20032;-75
2023/05/01 04:19:26;;;;;;;6.28;5.30;;;;;;;10.14;65.59;94858.91;5073159;28;20035;-75
2023/05/01 04:21:51;;;;;;;5.78;4.72;;;;;;;10.27;64.17;94828.44;5087189;28;20085;-76
2023/05/01 04:24:17;;;;;;;9.23;5.22;;;;;;;11.05;61.78;94847.94;5088001;28;20024;-76
2023/05/01 04:26:42;;;;;;;5.30;4.78;;;;;;;11.80;60.02;94854.53;5070401;28;20438;-76
2023/05/01 04:29:08;;;;;;;8.82;4.60;;;;;;;12.02;57.79;94832.69;5066427;28;20037;-76
2023/05/01 04:31:33;;;;;;;4.97;4.47;;;;;;;13.07;55.30;94844.97;5064768;28;20029;-76
2023/05/01 04:33:59;;;;;;;4.95;4.32;;;;;;;13.60;53.05;94835.75;5086581;28;20028;-75
2023/05/01 04:36:25;;;;;;;4.95;4.43;;;;;;;14.69;50.53;94840.94;5063140;28;20038;-76
2023/05/01 04:38:51;;;;;;;4.72;4.32;;;;;;;15.46;48.19;94846.31;5065734;28;20036;-76
2023/05/01 04:41:16;;;;;;;5.15;4.65;;;;;;;16.24;46.72;94846.13;5072548;28;20024;-76
2023/05/01 04:43:42;;;;;;;4.65;4.10;;;;;;;17.34;44.13;94844.03;5091723;28;20440;-76
2023/05/01 04:46:07;;;;;;;4.82;3.92;;;;;;;18.45;41.41;94846.53;5091168;28;20031;-76
2023/05/01 04:48:32;;;;;;;4.80;4.30;;;;;;;18.74;40.38;94847.66;5057883;28;20035;-76
2023/05/01 04:50:58;;;;;;;5.50;4.35;;;;;;;19.31;39.86;94849.00;5088319;28;20126;-76
2023/05/01 04:53:24;;;;;;;6.60;4.75;;;;;;;20.17;38.50;94847.53;5074753;28;20529;-76
2023/05/01 04:55:49;;;;;;;5.90;5.03;;;;;;;20.81;36.95;94848.59;5070886;28;20122;-76
2023/05/01 04:58:15;;;;;;;9.10;6.22;;;;;;;20.13;38.02;94853.34;5057188;28;20028;-76
2023/05/01 05:00:40;;;;;;;8.00;6.40;;;;;;;20.79;36.50;94854.09;5060553;28;20028;-76
2023/05/01 05:03:06;;;;;;;13.15;7.55;;;;;;;20.17;37.41;94846.69;5073903;28;20048;-76
2023/05/01 05:05:32;;;;;;;10.50;7.00;;;;;;;19.26;39.73;94857.41;5054100;28;20032;-77
2023/05/01 05:07:57;;;;;;;9.70;6.63;;;;;;;18.47;41.31;94867.38;5085202;28;20039;-77
2023/05/01 05:10:23;;;;;;;31.42;20.45;;;;;;;17.61;42.91;94855.94;5068456;28;20029;-75
2023/05/01 05:12:48;;;;;;;11.30;6.55;;;;;;;17.17;44.28;94874.72;5079747;28;20067;-76
2023/05/01 05:15:15;;;;;;;7.97;6.07;;;;;;;16.60;45.97;94872.88;5076296;28;20486;-76
2023/05/01 05:17:40;;;;;;;13.70;8.18;;;;;;;16.47;46.24;94878.63;5048182;28;20040;-76
2023/05/01 05:20:06;;;;;;;8.63;6.10;;;;;;;15.94;46.72;94845.75;5085172;28;20028;-75
2023/05/01 05:22:35;;;;;;;8.80;7.35;;;;;;;15.71;48.81;94890.03;5072567;28;20028;-76
2023/05/01 05:25:02;;;;;;;8.77;7.03;;;;;;;15.70;48.50;94890.97;5071443;28;20036;-76
2023/05/01 05:27:28;;;;;;;7.68;6.55;;;;;;;15.54;48.64;94891.66;5074500;28;20040;-75
2023/05/01 05:29:54;;;;;;;8.50;6.45;;;;;;;15.56;48.76;94894.97;5066963;28;20083;-76
2023/05/01 05:32:19;;;;;;;9.05;7.05;;;;;;;15.40;49.59;94900.09;5070887;28;20035;-76
2023/05/01 05:34:46;;;;;;;9.52;6.85;;;;;;;15.72;49.39;94903.94;5085435;28;20475;-76
2023/05/01 05:37:11;;;;;;;7.65;6.55;;;;;;;15.52;49.60;94900.69;5057532;28;20485;-76
2023/05/01 05:39:37;;;;;;;10.35;6.85;;;;;;;15.53;49.53;94897.91;5089449;28;20039;-76
2023/05/01 05:42:02;;;;;;;7.07;6.10;;;;;;;15.64;49.15;94895.00;5054375;28;20043;-76
2023/05/01 05:44:28;;;;;;;8.10;6.65;;;;;;;15.57;49.48;94904.47;5090209;28;20036;-76
2023/05/01 05:46:53;;;;;;;8.52;6.38;;;;;;;15.68;49.67;94910.41;5065219;28;20032;-76
2023/05/01 05:49:19;;;;;;;6.95;6.25;;;;;;;15.96;49.07;94904.00;5085656;28;21098;-76
2023/05/01 05:51:45;;;;;;;6.15;5.55;;;;;;;16.17;48.67;94908.03;5088683;28;20032;-76
2023/05/01 05:54:10;;;;;;;7.93;6.07;;;;;;;16.23;48.50;94905.59;5083533;28;20051;-76
2023/05/01 05:56:35;;;;;;;6.78;5.72;;;;;;;16.40;47.89;94910.88;5064588;28;20457;-76
2023/05/01 05:59:03;;;;;;;9.73;7.10;;;;;;;15.92;49.26;94909.75;5070449;28;20039;-76
2023/05/01 06:01:28;;;;;;;8.07;6.38;;;;;;;15.88;50.06;94914.47;5082295;28;20032;-76
2023/05/01 06:03:54;;;;;;;7.15;6.22;;;;;;;16.15;49.36;94920.47;5062907;28;20040;-76
2023/05/01 06:06:20;;;;;;;8.85;6.40;;;;;;;15.99;49.38;94908.97;5091268;28;20539;-76
2023/05/01 06:08:45;;;;;;;9.02;6.55;;;;;;;15.97;49.35;94913.53;5061975;28;20505;-76
2023/05/01 06:11:11;;;;;;;10.55;6.18;;;;;;;16.00;49.21;94913.22;5084016;28;20116;-76
2023/05/01 06:13:37;;;;;;;8.60;6.43;;;;;;;15.97;49.65;94924.00;5072592;28;20494;-76
2023/05/01 06:16:02;;;;;;;9.00;7.68;;;;;;;15.63;50.61;94927.41;5061100;28;20394;-76
2023/05/01 06:18:29;;;;;;;12.80;7.57;;;;;;;15.70;50.88;94918.97;5072225;28;20028;-76
2023/05/01 06:20:55;;;;;;;7.93;7.15;;;;;;;15.52;51.26;94926.88;5055277;28;20032;-76
2023/05/01 06:23:20;;;;;;;8.98;7.07;;;;;;;15.69;51.67;94930.44;5035842;28;20560;-75
2023/05/01 06:25:47;;;;;;;8.73;6.95;;;;;;;15.97;50.39;94925.81;5056969;28;20028;-75
2023/05/01 06:28:13;;;;;;;10.23;7.50;;;;;;;16.24;50.25;94922.97;5094203;28;20040;-76
2023/05/01 06:30:38;;;;;;;8.25;6.97;;;;;;;16.13;50.57;94904.06;5053514;28;20032;-76
2023/05/01 06:33:04;;;;;;;9.77;7.43;;;;;;;16.20;49.74;94916.41;5071559;28;20578;-76
2023/05/01 06:35:29;;;;;;;7.93;7.13;;;;;;;16.10;50.34;94907.84;5084238;28;20031;-76
2023/05/01 06:37:55;;;;;;;9.13;7.78;;;;;;;16.21;49.72;94920.66;5085878;28;20039;-76
2023/05/01 06:40:20;;;;;;;8.68;7.55;;;;;;;16.41;49.95;94908.13;5080183;28;20283;-76
2023/05/01 06:42:46;;;;;;;10.68;7.50;;;;;;;16.46;49.43;94918.09;5068305;28;20028;-76
2023/05/01 06:45:11;;;;;;;7.93;6.85;;;;;;;16.92;48.64;94923.78;5068456;28;20032;-75
2023/05/01 06:47:37;;;;;;;10.27;7.63;;;;;;;17.15;49.11;94916.06;5044519;28;20090;-76
2023/05/01 06:50:03;;;;;;;7.95;6.95;;;;;;;17.28;47.53;94905.09;5052729;28;20425;-76
2023/05/01 06:52:29;;;;;;;9.27;7.13;;;;;;;17.39;47.41;94910.81;5069942;28;20482;-75
2023/05/01 06:54:54;;;;;;;14.57;8.75;;;;;;;17.63;47.16;94927.50;5034162;28;20036;-75
2023/05/01 06:57:21;;;;;;;9.45;7.05;;;;;;;17.68;47.15;94912.03;5056314;28;20383;-74
2023/05/01 06:59:46;;;;;;;9.93;7.40;;;;;;;17.58;46.87;94909.63;5065215;28;20024;-76
2023/05/01 07:02:12;;;;;;;9.13;7.43;;;;;;;17.55;47.51;94920.47;5040325;28;20041;-72
2023/05/01 07:04:37;;;;;;;8.60;7.50;;;;;;;17.73;46.32;94911.56;5067891;28;20035;-75
2023/05/01 07:07:03;;;;;;;7.88;7.07;;;;;;;18.05;45.92;94918.53;5087502;28;20036;-73
2023/05/01 07:09:28;;;;;;;8.57;6.70;;;;;;;18.06;45.48;94915.75;5088983;28;20437;-74
2023/05/01 07:11:55;;;;;;;6.93;6.22;;;;;;;18.17;45.73;94924.25;5068498;28;20032;-73
2023/05/01 07:14:21;;;;;;;7.05;6.15;;;;;;;18.21;44.71;94921.09;5060103;28;20521;-73
2023/05/01 07:16:47;;;;;;;7.00;6.13;;;;;;;17.77;45.61;94903.16;5078653;28;20028;-75
2023/05/01 07:19:12;;;;;;;7.50;6.80;;;;;;;17.99;45.87;94917.41;5034781;28;20553;-75
2023/05/01 07:21:39;;;;;;;7.53;5.60;;;;;;;18.29;44.63;94921.06;5069463;28;20499;-75
2023/05/01 07:24:05;;;;;;;6.13;5.03;;;;;;;18.38;43.84;94921.81;5064719;28;20029;-76
2023/05/01 07:26:30;;;;;;;6.45;5.50;;;;;;;18.64;43.52;94918.91;5080902;28;20342;-74
2023/05/01 07:28:56;;;;;;;10.18;7.72;;;;;;;18.89;44.06;94930.13;5045184;28;20405;-73
2023/05/01 07:31:21;;;;;;;11.05;7.40;;;;;;;18.27;46.09;94935.34;5061262;28;20044;-74
2023/05/01 07:33:47;;;;;;;10.63;7.78;;;;;;;17.74;46.47;94928.94;5082391;28;20032;-73
2023/05/01 07:36:13;;;;;;;9.55;7.90;;;;;;;18.17;46.21;94934.75;5079120;28;20028;-73
2023/05/01 07:38:39;;;;;;;9.60;8.13;;;;;;;18.13;45.76;94918.50;5068812;28;20029;-73
2023/05/01 07:41:04;;;;;;;11.02;8.32;;;;;;;17.54;47.35;94934.56;5061680;28;20036;-75
2023/05/01 07:43:30;;;;;;;9.23;7.32;;;;;;;17.93;47.52;94939.09;5045447;28;20027;-75
2023/05/01 07:45:57;;;;;;;9.07;7.82;;;;;;;18.24;46.69;94923.38;5033325;28;20016;-74
2023/05/01 07:48:22;;;;;;;8.02;7.20;;;;;;;18.31;45.36;94921.72;5083013;28;20024;-75
2023/05/01 07:50:48;;;;;;;7.40;6.28;;;;;;;17.79;46.03;94914.34;5033166;28;20055;-76
2023/05/01 07:53:13;;;;;;;11.73;7.85;;;;;;;18.34;46.52;94930.25;5056541;28;20123;-73
2023/05/01 07:55:39;;;;;;;8.82;7.93;;;;;;;17.89;48.35;94927.31;5060561;28;20047;-78
2023/05/01 07:58:05;;;;;;;9.60;7.90;;;;;;;18.33;46.40;94933.84;5052667;28;20032;-75
2023/05/01 08:00:30;;;;;;;10.80;7.95;;;;;;;18.50;45.59;94928.34;5066343;28;20020;-76
2023/05/01 08:02:56;;;;;;;9.68;7.30;;;;;;;18.70;45.75;94920.84;5038948;28;20113;-75
2023/05/01 08:05:21;;;;;;;10.50;7.00;;;;;;;18.59;44.67;94926.50;5054981;28;20558;-75
2023/05/01 08:07:46;;;;;;;9.30;6.47;;;;;;;17.91;45.06;94930.56;5053979;28;20509;-74
2023/05/01 08:10:12;;;;;;;8.25;6.60;;;;;;;18.41;45.63;94937.25;5071083;28;20429;-75
2023/05/01 08:12:38;;;;;;;11.00;6.65;;;;;;;18.25;46.37;94935.56;5072761;28;20403;-75
2023/05/01 08:15:04;;;;;;;6.78;5.88;;;;;;;18.10;45.26;94931.97;5054296;28;20172;-75
2023/05/01 08:17:30;;;;;;;7.05;5.93;;;;;;;18.55;44.67;94927.81;5055247;28;20032;-75
2023/05/01 08:19:56;;;;;;;9.98;6.20;;;;;;;18.69;43.61;94919.22;5038451;28;20433;-75
2023/05/01 08:22:22;;;;;;;12.05;5.57;;;;;;;18.39;44.20;94927.94;5055086;28;20082;-75
2023/05/01 08:24:49;;;;;;;10.13;5.90;;;;;;;18.45;46.05;94928.06;5055120;28;20509;-75
2023/05/01 08:27:14;;;;;;;7.22;5.75;;;;;;;18.86;45.39;94935.75;5054932;28;20036;-75
2023/05/01 08:29:40;;;;;;;8.55;5.53;;;;;;;18.95;44.94;94924.16;5038279;28;20548;-75
2023/05/01 08:32:05;;;;;;;8.82;4.15;;;;;;;18.65;41.61;94933.69;5072824;28;20419;-75
2023/05/01 08:34:31;;;;;;;6.43;4.10;;;;;;;18.22;42.34;94922.75;5088164;28;20024;-75
2023/05/01 08:36:57;;;;;;;6.60;3.55;;;;;;;18.55;41.23;94922.56;5054664;28;20048;-75
2023/05/01 08:39:23;;;;;;;5.30;3.63;;;;;;;18.35;40.79;94926.63;5038248;28;20063;-75
2023/05/01 08:41:48;;;;;;;6.07;4.43;;;;;;;18.70;42.46;94912.94;5054628;28;20047;-75
2023/05/01 08:44:17;;;;;;;7.95;5.25;;;;;;;18.94;42.38;94917.25;5037330;28;20025;-75
2023/05/01 08:46:44;;;;;;;6.78;4.10;;;;;;;19.10;42.37;94912.84;5038693;28;20041;-75
2023/05/01 08:49:11;;;;;;;6.05;4.15;;;;;;;19.26;42.27;94919.81;5054504;28;20551;-75
2023/05/01 08:51:36;;;;;;;5.22;3.95;;;;;;;19.51;39.94;94910.69;5037798;28;20044;-75
2023/05/01 08:54:02;;;;;;;5.13;3.03;;;;;;;19.50;38.83;94916.94;5054538;28;20025;-74
2023/05/01 08:56:28;;;;;;;3.45;2.80;;;;;;;19.17;38.23;94909.34;5039877;28;20231;-75
2023/05/01 08:58:54;;;;;;;4.50;3.20;;;;;;;19.09;40.29;94912.03;5069369;28;20027;-75
2023/05/01 09:01:19;;;;;;;5.57;3.53;;;;;;;19.31;39.85;94905.09;5048944;28;20025;-74
2023/05/01 09:03:45;;;;;;;5.07;3.35;;;;;;;19.47;39.76;94906.75;5064493;28;20048;-75
2023/05/01 09:06:10;;;;;;;4.43;3.10;;;;;;;19.28;39.79;94904.63;5056623;28;20512;-75
2023/05/01 09:08:36;;;;;;;5.03;3.45;;;;;;;18.85;40.75;94909.59;5038754;28;20036;-73
2023/05/01 09:11:02;;;;;;;5.63;3.95;;;;;;;19.09;40.93;94900.69;5058953;28;20123;-73
2023/05/01 09:13:27;;;;;;;5.15;2.85;;;;;;;18.84;39.74;94879.00;5056216;28;20035;-74
2023/05/01 09:15:53;;;;;;;5.22;3.40;;;;;;;19.10;40.58;94900.50;5056509;28;20028;-73
2023/05/01 09:18:18;;;;;;;5.10;2.78;;;;;;;19.26;39.60;94910.09;5089025;28;20497;-74
2023/05/01 09:20:44;;;;;;;4.78;3.15;;;;;;;19.38;38.74;94907.84;5065654;28;20485;-74
2023/05/01 09:23:10;;;;;;;5.15;3.45;;;;;;;19.46;39.46;94899.84;5069176;28;20048;-74
2023/05/01 09:25:35;;;;;;;5.00;3.17;;;;;;;19.59;39.50;94893.97;5073296;28;20441;-74
2023/05/01 09:28:03;;;;;;;4.50;2.80;;;;;;;19.55;39.08;94892.69;5045856;28;20039;-74
2023/05/01 09:30:30;;;;;;;4.47;3.25;;;;;;;19.26;38.97;94881.13;5071187;28;20040;-75
2023/05/01 09:33:06;;;;;;;3.63;3.00;;;;;;;19.63;38.88;94890.78;5064318;28;20036;-74
2023/05/01 09:35:32;;;;;;;3.70;2.80;;;;;;;19.39;37.35;94905.03;5067000;28;20025;-74
2023/05/01 09:37:58;;;;;;;3.78;2.90;;;;;;;18.81;39.42;94913.56;5084420;28;20021;-74
2023/05/01 09:40:27;;;;;;;3.65;2.70;;;;;;;19.01;39.71;94911.28;5082029;28;20089;-74
2023/05/01 09:42:53;;;;;;;4.72;3.30;;;;;;;19.26;40.07;94901.38;5054822;28;20028;-74
2023/05/01 09:45:19;;;;;;;5.10;3.08;;;;;;;19.31;39.29;94901.66;5088475;28;20042;-74
2023/05/01 09:47:45;;;;;;;5.25;3.00;;;;;;;19.27;38.92;94903.00;5066301;28;20035;-74
2023/05/01 09:50:27;;;;;;;4.28;3.15;;;;;;;19.39;39.47;94898.94;5088078;28;20024;-74
2023/05/01 09:52:52;;;;;;;7.38;3.33;;;;;;;19.54;38.77;94899.78;5081576;28;20563;-74
2023/05/01 09:55:18;;;;;;;5.78;3.60;;;;;;;19.53;38.45;94886.78;5089890;28;20028;-74
2023/05/01 09:57:45;;;;;;;3.25;2.65;;;;;;;19.74;37.60;94888.75;5081164;28;20044;-74
2023/05/01 10:00:13;;;;;;;4.45;3.10;;;;;;;19.54;37.71;94894.50;5089856;28;20028;-74
2023/05/01 10:02:39;;;;;;;5.13;3.40;;;;;;;19.50;37.77;94869.53;5069714;28;20434;-73
2023/05/01 10:05:06;;;;;;;5.38;3.17;;;;;;;19.60;38.19;94883.25;5069602;28;20059;-74
2023/05/01 10:07:32;;;;;;;3.63;2.47;;;;;;;19.95;37.26;94882.75;5077300;28;20560;-74
2023/05/01 10:09:57;;;;;;;3.53;2.50;;;;;;;20.09;36.77;94889.81;5052930;28;20021;-74
2023/05/01 10:12:27;;;;;;;3.78;3.25;;;;;;;20.14;36.41;94878.69;5060576;28;20436;-74
2023/05/01 10:14:53;;;;;;;3.90;2.50;;;;;;;20.25;35.84;94889.63;5051696;28;20021;-73
2023/05/01 10:17:18;;;;;;;4.47;2.70;;;;;;;20.28;35.61;94881.34;5069422;28;20105;-74
2023/05/01 10:19:45;;;;;;;3.88;2.13;;;;;;;19.88;36.52;94882.63;5067170;28;20032;-73
2023/05/01 10:22:11;;;;;;;4.05;2.45;;;;;;;19.32;36.88;94882.22;5046324;28;20490;-74
2023/05/01 10:24:39;;;;;;;3.05;2.33;;;;;;;19.89;37.04;94879.00;5042612;28;20082;-74
2023/05/01 10:27:06;;;;;;;4.80;2.50;;;;;;;19.93;35.88;94885.56;5022913;28;20548;-74
2023/05/01 10:29:35;;;;;;;4.85;2.60;;;;;;;19.76;36.65;94881.47;5059590;28;20040;-76
2023/05/01 10:32:01;;;;;;;4.43;2.38;;;;;;;19.33;36.32;94849.59;5047219;28;20098;-74
2023/05/01 10:34:27;;;;;;;3.53;2.40;;;;;;;19.54;37.49;94880.53;5044022;28;20040;-74
2023/05/01 10:36:56;;;;;;;3.28;2.67;;;;;;;18.70;39.81;94893.72;5041858;28;20082;-74
2023/05/01 10:39:31;;;;;;;5.38;2.80;;;;;;;18.83;41.53;94898.41;5057599;28;20036;-74
2023/05/01 10:41:56;;;;;;;5.70;2.45;;;;;;;18.74;41.37;94887.94;5055510;28;20403;-75
2023/05/01 10:44:23;;;;;;;3.10;2.30;;;;;;;19.07;38.87;94868.44;5065370;28;20078;-75
2023/05/01 10:46:48;;;;;;;4.85;2.40;;;;;;;19.32;37.82;94877.75;5057388;28;20110;-76
2023/05/01 10:49:14;;;;;;;2.85;2.45;;;;;;;19.67;38.64;94879.91;5041038;28;20016;-75
2023/05/01 10:51:58;;;;;;;2.90;2.33;;;;;;;19.59;37.52;94878.97;5035518;28;20041;-74
2023/05/01 10:54:25;;;;;;;3.72;2.40;;;;;;;19.29;39.12;94872.84;5047407;28;20021;-75
2023/05/01 10:56:51;;;;;;;4.40;2.60;;;;;;;19.70;38.46;94888.28;5047027;28;20491;-74
2023/05/01 10:59:16;;;;;;;3.28;2.60;;;;;;;19.76;37.80;94873.56;5046560;28;20039;-74
2023/05/01 11:01:52;;;;;;;9.30;2.83;;;;;;;20.09;37.44;94887.19;5047017;28;20037;-74
2023/05/01 11:04:20;;;;;;;3.35;2.72;;;;;;;19.47;39.02;94883.03;5032759;28;20041;-74
2023/05/01 11:07:04;;;;;;;3.17;2.53;;;;;;;19.35;40.05;94884.50;5049726;28;20037;-74
2023/05/01 11:09:42;;;;;;;4.25;2.60;;;;;;;19.58;39.12;94882.59;5052134;28;20025;-74
2023/05/01 11:12:10;;;;;;;4.20;2.80;;;;;;;19.77;39.22;94880.47;5050752;28;20186;-74
2023/05/01 11:15:01;;;;;;;3.95;2.78;;;;;;;19.82;39.83;94878.09;5017793;28;20411;-74
2023/05/01 11:17:42;;;;;;;8.25;3.00;;;;;;;19.63;39.34;94888.16;5050272;28;20043;-74
2023/05/01 11:20:11;;;;;;;6.72;2.80;;;;;;;19.75;38.77;94887.72;5051951;28;20118;-75
2023/05/01 11:22:38;;;;;;;4.88;2.88;;;;;;;19.30;39.73;94887.66;5041209;28;20032;-73
2023/05/01 11:25:19;;;;;;;4.55;2.47;;;;;;;19.45;39.30;94897.41;5068099;28;20082;-73
2023/05/01 11:27:53;;;;;;;3.50;2.70;;;;;;;19.51;39.52;94891.41;5073938;28;20124;-73
2023/05/01 11:30:19;;;;;;;5.30;2.60;;;;;;;19.54;38.83;94896.31;5038528;28;20054;-73
2023/05/01 11:32:46;;;;;;;3.85;2.30;;;;;;;19.35;37.55;94901.09;5053225;28;20554;-74
2023/05/01 11:35:16;;;;;;;3.42;2.00;;;;;;;19.34;38.36;94896.03;5066884;28;20479;-74